Time;durP1;ratioP1;P1;durP2;ratioP2;P2;SDS_P1;SDS_P2;PMS_P1;PMS_P2;Temp;Humidity;BMP_temperature;BMP_pressure;BME280_temperature;BME280_humidity;BME280_pressure;Samples;Min_cycle;Max_cycle;Signal;HPM_P1;HPM_P2
2022/07/27 00:02:08;;;;;;;6.97;2.00;;;18.00;87.20;;;;;;5011118;28;20439;-73
2022/07/27 00:04:33;;;;;;;9.50;2.00;;;18.00;87.10;;;;;;5011509;28;20489;-73
2022/07/27 00:06:59;;;;;;;4.22;1.83;;;18.00;87.50;;;;;;5010346;28;20057;-74
2022/07/27 00:09:25;;;;;;;7.28;1.63;;;17.90;87.80;;;;;;5010145;28;20087;-74
2022/07/27 00:11:50;;;;;;;10.57;1.58;;;18.00;87.50;;;;;;5010131;28;20034;-73
2022/07/27 00:14:16;;;;;;;7.40;1.50;;;17.90;87.30;;;;;;5011158;28;20034;-74
2022/07/27 00:16:42;;;;;;;7.97;1.30;;;18.00;87.60;;;;;;5011533;28;20037;-74
2022/07/27 00:19:07;;;;;;;4.28;1.02;;;18.00;87.50;;;;;;5016595;28;20534;-72
2022/07/27 00:21:34;;;;;;;8.18;1.67;;;18.00;87.70;;;;;;5017330;28;20040;-72
2022/07/27 00:23:59;;;;;;;6.80;1.58;;;17.90;87.70;;;;;;5017687;28;20033;-73
2022/07/27 00:26:25;;;;;;;4.65;1.10;;;17.90;87.70;;;;;;5017448;28;20113;-73
2022/07/27 00:28:51;;;;;;;8.68;1.13;;;17.60;88.60;;;;;;5017883;28;20117;-74
2022/07/27 00:31:17;;;;;;;3.83;1.38;;;17.70;88.80;;;;;;5017238;28;20057;-73
2022/07/27 00:33:43;;;;;;;6.03;1.60;;;17.70;88.70;;;;;;5017270;28;20606;-74
2022/07/27 00:36:09;;;;;;;5.45;1.30;;;17.70;89.00;;;;;;5017488;28;20121;-74
2022/07/27 00:38:35;;;;;;;4.05;0.88;;;17.70;89.40;;;;;;5016517;28;20038;-73
2022/07/27 00:41:00;;;;;;;7.00;2.00;;;17.70;89.30;;;;;;5017248;28;20021;-73
2022/07/27 00:43:26;;;;;;;7.88;1.98;;;17.80;89.40;;;;;;5017646;28;20026;-73
2022/07/27 00:45:52;;;;;;;7.10;1.67;;;17.70;89.60;;;;;;5017319;28;20397;-73
2022/07/27 00:48:18;;;;;;;6.95;1.50;;;17.70;89.60;;;;;;5017148;28;20112;-74
2022/07/27 00:50:46;;;;;;;8.23;1.70;;;17.70;89.50;;;;;;5017198;28;20050;-74
2022/07/27 00:53:12;;;;;;;5.72;1.50;;;17.70;89.90;;;;;;5017217;28;20044;-74
2022/07/27 00:55:38;;;;;;;5.60;1.48;;;17.60;90.20;;;;;;5017566;28;20045;-74
2022/07/27 00:58:07;;;;;;;7.20;1.58;;;17.60;90.30;;;;;;5017351;28;20099;-73
2022/07/27 01:00:34;;;;;;;6.47;1.45;;;17.60;90.30;;;;;;5016191;28;20022;-74
2022/07/27 01:03:00;;;;;;;4.90;1.10;;;17.50;90.30;;;;;;5017321;28;20030;-73
2022/07/27 01:05:27;;;;;;;9.07;1.20;;;17.40;90.50;;;;;;5016150;28;20045;-72
2022/07/27 01:07:54;;;;;;;8.50;1.30;;;17.40;90.70;;;;;;5017572;28;20018;-72
2022/07/27 01:10:20;;;;;;;10.25;2.45;;;17.40;90.60;;;;;;5017249;28;20026;-73
2022/07/27 01:12:46;;;;;;;9.43;1.55;;;17.50;90.50;;;;;;5017369;28;20038;-74
2022/07/27 01:15:12;;;;;;;8.82;1.58;;;17.50;90.40;;;;;;5016140;28;20273;-74
2022/07/27 01:17:38;;;;;;;5.22;1.20;;;17.50;90.40;;;;;;5016177;28;20045;-74
2022/07/27 01:20:04;;;;;;;10.38;1.30;;;17.50;90.60;;;;;;5017339;28;20022;-74
2022/07/27 01:22:30;;;;;;;5.53;1.65;;;17.50;90.50;;;;;;5016661;28;20057;-74
2022/07/27 01:24:56;;;;;;;5.68;1.55;;;17.40;90.80;;;;;;5016996;28;20064;-74
2022/07/27 01:27:22;;;;;;;9.38;1.30;;;17.40;90.80;;;;;;5017279;28;20062;-73
2022/07/27 01:29:48;;;;;;;13.65;1.85;;;17.40;90.90;;;;;;5014246;28;20034;-73
2022/07/27 01:32:14;;;;;;;6.20;1.13;;;17.30;91.00;;;;;;5012747;28;20207;-74
2022/07/27 01:34:40;;;;;;;8.60;1.00;;;17.30;90.90;;;;;;5014150;28;20063;-73
2022/07/27 01:37:06;;;;;;;5.57;0.98;;;17.30;91.10;;;;;;5031196;28;20029;-73
2022/07/27 01:39:33;;;;;;;10.63;1.20;;;17.20;91.10;;;;;;5032558;28;20349;-73
2022/07/27 01:41:59;;;;;;;8.00;1.40;;;17.20;91.30;;;;;;5033402;28;20540;-73
2022/07/27 01:44:25;;;;;;;2.38;0.70;;;17.20;91.30;;;;;;5032322;28;20348;-73
2022/07/27 01:46:50;;;;;;;5.43;1.05;;;17.10;91.30;;;;;;5032866;28;20482;-74
2022/07/27 01:49:16;;;;;;;8.35;1.40;;;17.10;91.40;;;;;;5032332;28;20138;-73
2022/07/27 01:51:42;;;;;;;7.15;1.20;;;17.10;91.60;;;;;;5032957;28;20034;-74
2022/07/27 01:54:08;;;;;;;7.25;1.85;;;17.10;91.70;;;;;;5033034;28;20077;-74
2022/07/27 01:56:34;;;;;;;5.38;1.33;;;17.20;91.60;;;;;;5032842;28;20471;-74
2022/07/27 01:59:00;;;;;;;5.72;1.10;;;17.20;91.60;;;;;;5033496;28;20026;-74
2022/07/27 02:01:26;;;;;;;12.63;1.50;;;17.20;91.40;;;;;;5033368;28;20105;-73
2022/07/27 02:03:52;;;;;;;7.18;1.80;;;17.10;91.80;;;;;;5032807;28;20037;-73
2022/07/27 02:06:17;;;;;;;6.30;1.23;;;17.20;91.60;;;;;;5032869;28;20482;-73
2022/07/27 02:08:43;;;;;;;3.90;1.33;;;17.20;91.40;;;;;;5032804;28;20030;-74
2022/07/27 02:13:53;;;;;;;7.57;1.20;;;17.20;91.70;;;;;;5033207;28;20040;-74
2022/07/27 02:16:19;;;;;;;2.70;1.00;;;17.10;91.70;;;;;;5032628;28;20025;-72
2022/07/27 02:18:45;;;;;;;8.82;1.63;;;17.10;91.80;;;;;;5031670;28;20029;-72
2022/07/27 02:21:11;;;;;;;4.72;1.75;;;17.10;92.00;;;;;;5032591;28;20471;-74
2022/07/27 02:23:37;;;;;;;8.93;1.23;;;17.00;92.10;;;;;;5032513;28;20034;-74
2022/07/27 02:26:07;;;;;;;4.70;1.23;;;16.90;92.20;;;;;;5031213;28;20266;-74
2022/07/27 02:28:34;;;;;;;6.25;1.40;;;16.70;92.50;;;;;;5032896;28;20155;-74
2022/07/27 02:31:00;;;;;;;2.88;1.10;;;16.80;92.70;;;;;;5032389;28;20026;-73
2022/07/27 02:33:26;;;;;;;6.82;1.35;;;16.80;92.50;;;;;;5032159;28;20107;-74
2022/07/27 02:35:52;;;;;;;6.00;1.23;;;16.80;92.60;;;;;;5032444;28;20030;-74
2022/07/27 02:38:18;;;;;;;6.72;1.27;;;16.80;92.60;;;;;;5032455;28;20360;-72
2022/07/27 02:40:44;;;;;;;3.90;1.30;;;16.70;92.90;;;;;;5032468;28;20022;-74
2022/07/27 02:43:10;;;;;;;3.05;0.88;;;16.70;92.60;;;;;;5032471;28;20129;-74
2022/07/27 02:45:35;;;;;;;10.95;1.27;;;16.60;92.80;;;;;;5032142;28;20036;-74
2022/07/27 02:48:01;;;;;;;5.63;1.45;;;16.70;92.70;;;;;;5031175;28;20080;-72
2022/07/27 02:50:29;;;;;;;9.07;1.30;;;16.70;92.80;;;;;;5032263;28;20404;-73
2022/07/27 02:52:55;;;;;;;;;;;16.70;92.60;;;;;;5032908;28;20095;-74
2022/07/27 02:55:20;;;;;;;4.22;1.05;;;16.70;92.50;;;;;;5031980;28;19921;-73
2022/07/27 02:57:46;;;;;;;6.53;1.42;;;16.70;92.50;;;;;;5031888;28;20043;-73
2022/07/27 03:00:14;;;;;;;5.05;1.08;;;16.80;92.40;;;;;;5031960;28;20030;-74
2022/07/27 03:02:39;;;;;;;3.28;1.25;;;16.70;92.30;;;;;;5032089;28;20177;-73
2022/07/27 03:05:07;;;;;;;6.40;1.10;;;16.70;92.20;;;;;;5031645;28;20059;-73
2022/07/27 03:07:33;;;;;;;7.43;1.92;;;16.60;92.40;;;;;;5032437;28;20022;-73
2022/07/27 03:09:59;;;;;;;6.80;0.90;;;16.60;92.50;;;;;;5031864;28;20033;-74
2022/07/27 03:12:24;;;;;;;3.17;1.10;;;16.50;92.60;;;;;;5031606;28;20091;-74
2022/07/27 03:14:50;;;;;;;3.55;1.00;;;16.50;92.80;;;;;;5031416;28;20045;-73
2022/07/27 03:17:16;;;;;;;3.55;1.23;;;16.40;92.80;;;;;;5030437;28;22591;-73
2022/07/27 03:19:42;;;;;;;8.52;1.40;;;16.40;92.80;;;;;;5032019;28;20040;-73
2022/07/27 03:22:08;;;;;;;6.53;1.35;;;16.50;92.80;;;;;;5030358;28;20040;-73
2022/07/27 03:24:33;;;;;;;6.53;1.20;;;16.50;92.80;;;;;;5031259;28;20248;-72
2022/07/27 03:26:59;;;;;;;3.72;1.17;;;16.50;92.90;;;;;;5031521;28;20049;-73
2022/07/27 03:29:25;;;;;;;3.63;1.25;;;16.40;93.20;;;;;;5031300;28;20460;-74
2022/07/27 03:31:50;;;;;;;7.60;1.30;;;16.30;93.30;;;;;;5031620;28;20036;-73
2022/07/27 03:34:16;;;;;;;4.90;1.40;;;16.30;93.40;;;;;;5031249;28;20431;-73
2022/07/27 03:36:42;;;;;;;3.97;1.10;;;16.40;93.20;;;;;;5031227;28;20030;-72
2022/07/27 03:39:08;;;;;;;5.30;1.35;;;16.40;93.30;;;;;;5030845;28;20064;-74
2022/07/27 03:41:34;;;;;;;5.65;1.40;;;16.50;93.20;;;;;;5031261;28;20095;-73
2022/07/27 03:43:59;;;;;;;5.43;1.45;;;16.40;93.20;;;;;;5030298;28;20033;-71
2022/07/27 03:46:25;;;;;;;4.05;1.40;;;16.30;93.30;;;;;;5030535;28;20025;-72
2022/07/27 03:48:51;;;;;;;4.72;1.20;;;16.40;93.30;;;;;;5031069;28;20040;-73
2022/07/27 03:51:17;;;;;;;7.97;1.55;;;16.40;93.40;;;;;;5031026;28;20036;-73
2022/07/27 03:53:42;;;;;;;5.18;1.30;;;16.40;93.40;;;;;;5030218;28;20112;-72
2022/07/27 03:56:08;;;;;;;5.95;1.20;;;16.30;93.50;;;;;;5030634;28;20073;-73
2022/07/27 03:58:34;;;;;;;4.95;1.05;;;16.40;93.50;;;;;;5030540;28;20412;-72
2022/07/27 04:00:59;;;;;;;6.43;1.23;;;16.40;93.50;;;;;;5031063;28;20060;-73
2022/07/27 04:03:25;;;;;;;2.97;0.88;;;16.30;93.50;;;;;;5030779;28;20044;-74
2022/07/27 04:05:51;;;;;;;6.30;1.52;;;16.50;93.40;;;;;;5030782;28;20053;-72
2022/07/27 04:08:18;;;;;;;3.92;1.63;;;16.30;93.70;;;;;;5030549;28;20057;-73
2022/07/27 04:10:44;;;;;;;6.32;1.20;;;16.40;93.70;;;;;;5031268;28;20056;-73
2022/07/27 04:13:11;;;;;;;8.70;1.80;;;16.40;93.70;;;;;;5030493;28;20065;-74
2022/07/27 04:15:37;;;;;;;4.47;1.55;;;16.50;93.50;;;;;;5030562;28;20521;-72
2022/07/27 04:18:03;;;;;;;4.72;1.15;;;16.50;93.50;;;;;;5030610;28;20037;-74
2022/07/27 04:20:28;;;;;;;5.10;1.38;;;16.50;93.60;;;;;;5030730;28;20086;-73
2022/07/27 04:22:54;;;;;;;3.67;1.27;;;16.50;93.60;;;;;;5030827;28;20030;-72
2022/07/27 04:25:20;;;;;;;4.43;1.17;;;16.40;93.70;;;;;;5030769;28;20036;-73
2022/07/27 04:27:46;;;;;;;6.25;1.08;;;16.30;93.90;;;;;;5030610;28;20030;-72
2022/07/27 04:30:12;;;;;;;4.63;1.23;;;16.30;94.00;;;;;;5030417;28;20038;-72
2022/07/27 04:32:38;;;;;;;4.68;1.30;;;16.30;94.00;;;;;;5030315;28;20033;-73
2022/07/27 04:35:05;;;;;;;4.80;1.27;;;16.30;94.00;;;;;;5030166;28;20063;-73
2022/07/27 04:37:32;;;;;;;7.13;1.50;;;16.20;94.20;;;;;;5030850;28;20025;-73
2022/07/27 04:39:57;;;;;;;7.50;2.25;;;16.10;94.50;;;;;;5029988;28;20049;-72
2022/07/27 04:42:23;;;;;;;5.47;1.40;;;16.20;94.60;;;;;;5030248;28;20360;-73
2022/07/27 04:44:49;;;;;;;4.60;1.60;;;16.30;94.50;;;;;;5030244;28;20034;-73
2022/07/27 04:47:15;;;;;;;6.15;1.38;;;16.30;94.50;;;;;;5030044;28;20286;-73
2022/07/27 04:49:40;;;;;;;7.93;1.50;;;16.40;94.40;;;;;;5030476;28;20574;-73
2022/07/27 04:52:06;;;;;;;6.28;1.42;;;16.30;94.40;;;;;;5028944;28;20454;-74
2022/07/27 04:54:31;;;;;;;4.20;1.20;;;16.40;94.40;;;;;;5030302;28;20107;-73
2022/07/27 04:56:57;;;;;;;1.63;1.08;;;16.20;94.60;;;;;;5030009;28;20379;-73
2022/07/27 04:59:23;;;;;;;6.90;1.55;;;16.30;94.60;;;;;;5029257;28;20113;-73
2022/07/27 05:01:49;;;;;;;4.10;1.60;;;16.20;94.80;;;;;;5029359;28;20029;-73
2022/07/27 05:04:14;;;;;;;6.18;1.45;;;16.30;94.80;;;;;;5031573;28;20030;-72
2022/07/27 05:06:41;;;;;;;4.82;2.10;;;16.30;94.70;;;;;;5032635;28;20055;-72
2022/07/27 05:09:07;;;;;;;7.18;2.15;;;16.30;94.60;;;;;;5033740;28;20121;-73
2022/07/27 05:11:32;;;;;;;7.50;2.03;;;16.40;94.70;;;;;;5032574;28;20109;-73
2022/07/27 05:13:58;;;;;;;7.50;1.75;;;16.40;94.60;;;;;;5032610;28;20045;-73
2022/07/27 05:16:24;;;;;;;2.90;1.45;;;16.40;95.00;;;;;;5034102;28;20021;-73
2022/07/27 05:18:50;;;;;;;3.60;1.40;;;16.30;94.90;;;;;;5032416;28;20029;-73
2022/07/27 05:21:15;;;;;;;4.18;1.55;;;16.30;94.90;;;;;;5033609;28;20044;-72
2022/07/27 05:23:41;;;;;;;2.38;1.63;;;16.30;94.90;;;;;;5033589;28;20502;-72
2022/07/27 05:26:07;;;;;;;7.45;2.55;;;16.40;94.90;;;;;;5032931;28;20095;-74
2022/07/27 05:28:32;;;;;;;7.53;2.22;;;16.50;95.30;;;;;;5034122;28;20047;-74
2022/07/27 05:30:58;;;;;;;5.65;2.08;;;16.60;95.50;;;;;;5033661;28;20033;-74
2022/07/27 05:33:24;;;;;;;6.75;1.65;;;16.60;95.50;;;;;;5032567;28;20353;-74
2022/07/27 05:35:50;;;;;;;46.10;23.80;;;16.60;95.50;;;;;;5033528;28;20033;-74
2022/07/27 05:38:15;;;;;;;83.15;39.88;;;16.60;95.20;;;;;;5033521;28;20037;-71
2022/07/27 05:40:46;;;;;;;13.90;4.63;;;16.60;95.00;;;;;;5032902;28;20064;-72
2022/07/27 05:43:12;;;;;;;8.15;2.83;;;16.70;94.90;;;;;;5033506;28;20037;-73
2022/07/27 05:45:39;;;;;;;6.50;2.17;;;16.70;94.70;;;;;;5032519;28;20037;-75
2022/07/27 05:48:05;;;;;;;5.40;2.08;;;16.80;94.70;;;;;;5033384;28;20495;-76
2022/07/27 05:50:30;;;;;;;6.65;2.25;;;16.80;94.90;;;;;;5033308;28;20041;-75
2022/07/27 05:52:57;;;;;;;176.70;91.72;;;16.80;94.90;;;;;;5033443;28;20033;-74
2022/07/27 05:55:23;;;;;;;31.52;15.48;;;16.80;94.80;;;;;;5032033;28;20060;-74
2022/07/27 05:57:49;;;;;;;45.22;22.48;;;16.80;94.70;;;;;;5033381;28;20030;-76
2022/07/27 06:00:15;;;;;;;6.93;3.97;;;16.80;94.70;;;;;;5032145;28;20459;-73
2022/07/27 06:02:41;;;;;;;4.15;2.13;;;16.80;94.70;;;;;;5015365;28;20355;-71
2022/07/27 06:05:08;;;;;;;7.22;1.67;;;16.80;94.60;;;;;;5032661;28;20033;-73
2022/07/27 06:10:18;;;;;;;135.70;73.60;;;16.80;94.50;;;;;;5032822;28;20434;-71
2022/07/27 06:12:45;;;;;;;26.60;13.07;;;16.80;94.50;;;;;;5032461;28;20029;-75
2022/07/27 06:15:12;;;;;;;61.05;27.92;;;17.00;94.30;;;;;;5031411;28;20065;-75
2022/07/27 06:17:39;;;;;;;48.78;22.10;;;17.10;93.90;;;;;;5031233;28;20451;-74
2022/07/27 06:20:07;;;;;;;10.32;3.08;;;17.20;93.60;;;;;;5032491;28;20042;-72
2022/07/27 06:22:46;;;;;;;6.72;1.80;;;17.20;93.60;;;;;;5032821;28;20052;-74
2022/07/27 06:25:12;;;;;;;3.00;1.30;;;17.30;93.40;;;;;;5032525;28;20041;-74
2022/07/27 06:27:38;;;;;;;6.88;1.30;;;17.40;93.10;;;;;;5032680;28;20052;-75
2022/07/27 06:30:05;;;;;;;6.13;1.50;;;17.30;92.90;;;;;;5031735;28;20064;-78
2022/07/27 06:32:31;;;;;;;10.68;1.55;;;17.30;92.80;;;;;;5032374;28;20375;-79
2022/07/27 06:34:58;;;;;;;5.40;1.35;;;17.10;92.70;;;;;;5032686;28;20043;-78
2022/07/27 06:37:26;;;;;;;6.90;1.85;;;17.10;93.10;;;;;;5033135;28;20017;-75
2022/07/27 06:39:52;;;;;;;4.47;1.53;;;17.20;92.50;;;;;;5032640;28;20033;-72
2022/07/27 06:42:17;;;;;;;4.78;1.58;;;17.20;92.70;;;;;;5032114;28;20346;-73
2022/07/27 06:44:43;;;;;;;11.63;1.80;;;17.30;92.70;;;;;;5031930;28;20126;-72
2022/07/27 06:47:09;;;;;;;8.75;1.42;;;17.40;92.40;;;;;;5032274;28;20029;-75
2022/07/27 06:49:34;;;;;;;10.50;2.65;;;17.40;92.10;;;;;;5032711;28;20447;-76
2022/07/27 06:52:00;;;;;;;8.00;1.83;;;17.60;92.10;;;;;;5031050;28;20108;-75
2022/07/27 06:54:26;;;;;;;5.00;1.55;;;17.70;92.00;;;;;;5031965;28;20025;-74
2022/07/27 06:56:52;;;;;;;10.15;2.10;;;17.80;91.80;;;;;;5030640;28;20508;-74
2022/07/27 06:59:18;;;;;;;6.95;1.98;;;17.60;92.10;;;;;;5031889;28;20051;-73
2022/07/27 07:01:43;;;;;;;9.43;2.17;;;17.70;92.10;;;;;;5032481;28;20537;-73
2022/07/27 07:04:09;;;;;;;9.52;1.55;;;17.70;92.20;;;;;;5030624;28;20025;-77
2022/07/27 07:06:35;;;;;;;5.32;1.48;;;17.90;92.20;;;;;;5030768;28;20091;-73
2022/07/27 07:09:01;;;;;;;8.55;1.55;;;17.90;92.00;;;;;;5031842;28;20037;-73
2022/07/27 07:11:26;;;;;;;3.95;1.20;;;18.00;91.70;;;;;;5031774;28;20057;-75
2022/07/27 07:13:52;;;;;;;4.95;1.23;;;18.20;90.40;;;;;;5032042;28;20037;-74
2022/07/27 07:16:18;;;;;;;5.38;0.98;;;18.20;89.10;;;;;;5031843;28;20424;-72
2022/07/27 07:18:43;;;;;;;7.57;1.80;;;18.10;88.60;;;;;;5030088;28;20356;-72
2022/07/27 07:21:09;;;;;;;7.57;1.63;;;18.20;88.90;;;;;;5031309;28;20424;-73
2022/07/27 07:23:35;;;;;;;4.88;1.30;;;18.30;88.60;;;;;;5031375;28;20460;-74
2022/07/27 07:26:01;;;;;;;4.60;1.20;;;18.30;87.40;;;;;;5030575;28;20022;-73
2022/07/27 07:28:26;;;;;;;4.20;1.02;;;18.40;87.20;;;;;;5030828;28;20029;-73
2022/07/27 07:30:52;;;;;;;3.08;0.93;;;18.50;87.50;;;;;;5031526;28;20034;-74
2022/07/27 07:33:18;;;;;;;6.10;1.30;;;18.50;87.70;;;;;;5030092;28;20045;-74
2022/07/27 07:35:43;;;;;;;2.20;0.85;;;18.40;86.20;;;;;;5030155;28;20155;-79
2022/07/27 07:38:09;;;;;;;5.85;0.90;;;18.30;86.00;;;;;;5031667;28;20037;-76
2022/07/27 07:40:36;;;;;;;4.60;1.10;;;18.40;86.70;;;;;;5030949;28;20053;-74
2022/07/27 07:43:03;;;;;;;5.47;0.80;;;18.50;86.30;;;;;;5030325;28;20512;-75
2022/07/27 07:45:31;;;;;;;20.40;10.85;;;18.40;85.70;;;;;;5030392;28;20044;-74
2022/07/27 07:47:58;;;;;;;25.08;12.10;;;18.40;85.50;;;;;;5031218;28;20033;-74
2022/07/27 07:50:24;;;;;;;29.65;13.43;;;18.40;85.40;;;;;;5031258;28;20124;-75
2022/07/27 07:52:51;;;;;;;6.50;1.70;;;18.50;86.00;;;;;;5031631;28;20026;-78
2022/07/27 07:55:22;;;;;;;4.97;1.33;;;18.60;85.90;;;;;;5029948;28;20124;-78
2022/07/27 07:57:49;;;;;;;5.15;1.65;;;18.60;83.50;;;;;;5030801;28;20473;-74
2022/07/27 08:00:16;;;;;;;66.10;34.90;;;18.60;84.00;;;;;;5030774;28;20321;-76
2022/07/27 08:02:46;;;;;;;35.20;19.33;;;18.70;83.30;;;;;;5029712;28;20036;-80
2022/07/27 08:05:12;;;;;;;12.55;3.40;;;18.70;84.60;;;;;;5029959;28;20029;-75
2022/07/27 08:07:38;;;;;;;6.55;1.10;;;19.10;83.30;;;;;;5031507;28;20026;-75
2022/07/27 08:10:05;;;;;;;8.60;1.40;;;19.10;81.20;;;;;;5030899;28;20434;-74
2022/07/27 08:12:30;;;;;;;7.20;1.10;;;19.20;80.30;;;;;;5031066;28;20081;-75
2022/07/27 08:14:56;;;;;;;12.32;1.63;;;19.10;79.20;;;;;;5030522;28;20543;-74
2022/07/27 08:17:22;;;;;;;3.95;0.80;;;19.00;79.00;;;;;;5030596;28;20037;-74
2022/07/27 08:19:47;;;;;;;9.48;1.10;;;19.10;79.70;;;;;;5030154;28;20033;-74
2022/07/27 08:22:13;;;;;;;28.95;14.52;;;19.20;79.50;;;;;;5029475;28;20128;-73
2022/07/27 08:24:39;;;;;;;8.88;3.20;;;19.20;79.70;;;;;;5029678;28;20040;-74
2022/07/27 08:27:05;;;;;;;6.80;1.10;;;19.40;78.60;;;;;;5030987;28;20039;-74
2022/07/27 08:29:31;;;;;;;8.23;1.38;;;19.30;77.40;;;;;;5030641;28;20045;-74
2022/07/27 08:31:57;;;;;;;4.15;1.10;;;19.40;78.00;;;;;;5030293;28;20378;-74
2022/07/27 08:34:22;;;;;;;2.08;0.63;;;19.60;76.20;;;;;;5029999;28;20112;-73
2022/07/27 08:36:48;;;;;;;4.18;1.00;;;19.60;76.70;;;;;;5030272;28;20057;-73
2022/07/27 08:39:14;;;;;;;4.75;1.00;;;20.60;76.00;;;;;;5029680;28;20041;-73
2022/07/27 08:41:41;;;;;;;3.85;0.90;;;21.20;72.30;;;;;;5034846;28;20025;-74
2022/07/27 08:44:13;;;;;;;3.35;0.77;;;21.30;71.50;;;;;;5034319;28;20025;-73
2022/07/27 08:46:39;;;;;;;5.10;0.93;;;21.60;70.80;;;;;;5033515;28;20033;-73
2022/07/27 08:49:07;;;;;;;3.08;0.85;;;22.60;71.30;;;;;;5033525;28;20049;-72
2022/07/27 08:51:33;;;;;;;4.28;1.00;;;24.10;66.50;;;;;;5034202;28;20034;-73
2022/07/27 08:53:59;;;;;;;10.20;1.23;;;23.20;64.50;;;;;;5032633;28;20041;-73
2022/07/27 08:56:26;;;;;;;2.78;0.80;;;23.90;61.50;;;;;;5033596;28;20483;-72
2022/07/27 08:58:52;;;;;;;2.53;0.95;;;23.50;60.60;;;;;;5034507;28;20040;-72
2022/07/27 09:01:18;;;;;;;6.88;1.02;;;24.30;60.20;;;;;;5032716;28;20048;-73
2022/07/27 09:03:44;;;;;;;3.10;1.20;;;23.70;59.50;;;;;;5033854;28;20037;-74
2022/07/27 09:06:10;;;;;;;4.90;1.20;;;24.90;59.60;;;;;;5033517;28;20029;-72
2022/07/27 09:08:40;;;;;;;4.88;1.13;;;25.00;59.90;;;;;;5032380;28;20369;-72
2022/07/27 09:11:15;;;;;;;4.22;1.13;;;26.20;56.70;;;;;;5033603;28;20091;-74
2022/07/27 09:13:41;;;;;;;3.03;0.90;;;27.00;56.00;;;;;;5034426;28;20028;-75
2022/07/27 09:16:09;;;;;;;5.78;0.90;;;27.30;54.10;;;;;;5033358;28;20029;-74
2022/07/27 09:18:36;;;;;;;;;;;26.60;53.60;;;;;;5033845;28;20519;-74
2022/07/27 09:21:19;;;;;;;3.10;1.13;;;25.90;54.20;;;;;;5033015;28;19913;-73
2022/07/27 09:24:09;;;;;;;5.40;0.70;;;26.00;54.00;;;;;;5033004;28;20041;-73
2022/07/27 09:26:36;;;;;;;2.03;1.00;;;25.70;53.70;;;;;;5030374;28;20025;-72
2022/07/27 09:29:09;;;;;;;5.65;1.60;;;24.80;54.50;;;;;;5033638;28;20025;-72
2022/07/27 09:31:49;;;;;;;3.70;0.60;;;25.60;54.80;;;;;;5033884;28;20436;-73
2022/07/27 09:34:30;;;;;;;67.28;39.50;;;26.00;54.40;;;;;;5032215;28;20049;-74
2022/07/27 09:36:57;;;;;;;64.03;34.60;;;26.10;52.60;;;;;;5033335;28;20029;-73
2022/07/27 09:39:25;;;;;;;6.55;2.05;;;26.30;52.70;;;;;;5033218;28;20086;-77
2022/07/27 09:41:53;;;;;;;3.35;1.02;;;26.60;52.60;;;;;;5032128;28;20034;-75
2022/07/27 09:44:41;;;;;;;6.35;1.17;;;26.60;52.60;;;;;;5032015;28;20336;-73
2022/07/27 09:47:21;;;;;;;3.42;1.20;;;26.50;52.30;;;;;;5033011;28;20057;-73
2022/07/27 09:49:47;;;;;;;2.53;0.70;;;25.40;53.50;;;;;;5033305;28;20375;-73
2022/07/27 09:52:22;;;;;;;4.68;0.82;;;24.60;54.40;;;;;;5032238;28;20033;-72
2022/07/27 09:54:49;;;;;;;8.30;1.42;;;24.60;54.20;;;;;;5033096;28;20461;-74
2022/07/27 09:57:17;;;;;;;7.68;1.50;;;24.70;54.20;;;;;;5033191;28;20037;-73
2022/07/27 09:59:43;;;;;;;4.05;0.88;;;24.10;53.00;;;;;;5033088;28;20369;-72
2022/07/27 10:02:12;;;;;;;4.15;0.95;;;24.10;54.20;;;;;;5032602;28;20028;-74
2022/07/27 10:04:39;;;;;;;5.22;0.95;;;24.00;54.10;;;;;;5033268;28;20028;-73
2022/07/27 10:07:05;;;;;;;7.30;1.30;;;24.00;54.20;;;;;;5032976;28;20037;-72
2022/07/27 10:09:32;;;;;;;4.50;0.85;;;23.80;53.90;;;;;;5032711;28;20080;-73
2022/07/27 10:11:58;;;;;;;2.30;0.77;;;23.70;52.90;;;;;;5032488;28;20090;-73
2022/07/27 10:14:24;;;;;;;5.25;0.80;;;23.90;53.60;;;;;;5032447;28;20029;-72
2022/07/27 10:16:51;;;;;;;2.80;1.05;;;23.80;54.10;;;;;;5032956;28;20025;-72
2022/07/27 10:19:28;;;;;;;12.10;2.10;;;24.00;54.30;;;;;;5032413;28;20065;-72
2022/07/27 10:21:54;;;;;;;;;;;24.20;54.10;;;;;;5032993;28;20030;-72
2022/07/27 10:24:27;;;;;;;5.40;1.38;;;24.20;53.70;;;;;;5032718;28;20332;-72
2022/07/27 10:26:54;;;;;;;5.50;1.00;;;24.00;53.90;;;;;;5032320;28;20412;-72
2022/07/27 10:29:21;;;;;;;8.77;1.33;;;23.90;54.50;;;;;;5032324;28;20032;-71
2022/07/27 10:31:53;;;;;;;5.75;1.02;;;23.60;54.30;;;;;;5032641;28;20092;-71
2022/07/27 10:34:36;;;;;;;2.65;0.82;;;23.40;55.00;;;;;;5032034;28;20029;-71
2022/07/27 10:37:38;;;;;;;6.13;2.15;;;23.40;55.10;;;;;;5031877;28;20459;-72
2022/07/27 10:43:04;;;;;;;;;;;23.00;55.20;;;;;;5030943;28;20036;-72
2022/07/27 10:45:39;;;;;;;5.25;0.90;;;22.90;55.40;;;;;;5030911;28;20246;-72
2022/07/27 10:48:05;;;;;;;2.72;0.80;;;22.70;55.20;;;;;;5031797;28;20526;-72
2022/07/27 10:50:31;;;;;;;4.63;1.05;;;22.90;55.20;;;;;;5031877;28;20025;-72
2022/07/27 10:53:02;;;;;;;5.45;1.10;;;22.70;55.30;;;;;;5032343;28;20022;-71
2022/07/27 10:55:31;;;;;;;4.43;1.05;;;22.80;55.00;;;;;;5031832;28;20107;-72
2022/07/27 10:58:08;;;;;;;3.05;1.00;;;22.70;55.30;;;;;;5031899;28;20033;-71
2022/07/27 11:00:49;;;;;;;2.17;0.90;;;22.80;55.70;;;;;;5031882;28;20022;-72
2022/07/27 11:03:36;;;;;;;2.17;1.00;;;22.70;56.70;;;;;;5029954;28;20431;-72
2022/07/27 11:06:06;;;;;;;5.05;1.38;;;22.60;56.50;;;;;;5031658;28;20456;-72
2022/07/27 11:08:38;;;;;;;9.30;1.20;;;22.20;56.90;;;;;;5031399;28;20341;-72
2022/07/27 11:11:08;;;;;;;5.57;0.98;;;21.80;57.60;;;;;;5030301;28;20036;-72
2022/07/27 11:13:35;;;;;;;5.40;1.00;;;21.80;57.20;;;;;;5031867;28;20438;-72
2022/07/27 11:16:07;;;;;;;2.58;0.68;;;21.80;57.10;;;;;;5031176;28;20432;-72
2022/07/27 11:18:39;;;;;;;5.90;1.33;;;22.00;56.80;;;;;;5031342;28;20121;-72
2022/07/27 11:21:15;;;;;;;6.47;1.30;;;22.20;56.90;;;;;;5031200;28;20033;-72
2022/07/27 11:23:42;;;;;;;4.82;0.90;;;22.20;57.00;;;;;;5031042;28;20099;-72
2022/07/27 11:26:07;;;;;;;4.97;0.65;;;22.30;57.50;;;;;;5031067;28;20021;-71
2022/07/27 11:28:35;;;;;;;2.10;0.70;;;22.30;57.50;;;;;;5031502;28;20018;-72
2022/07/27 11:31:01;;;;;;;8.60;1.00;;;22.30;57.40;;;;;;5031033;28;20026;-73
2022/07/27 11:33:27;;;;;;;2.22;0.80;;;22.00;57.30;;;;;;5030950;28;20033;-73
2022/07/27 11:36:13;;;;;;;7.53;1.48;;;21.90;56.90;;;;;;5030908;28;20040;-72
2022/07/27 11:38:53;;;;;;;3.95;0.70;;;21.70;56.90;;;;;;5030844;28;20113;-72
2022/07/27 11:41:21;;;;;;;3.22;0.82;;;21.90;56.70;;;;;;5030703;28;20037;-72
2022/07/27 11:43:47;;;;;;;4.22;1.25;;;21.90;56.20;;;;;;5031378;28;20037;-72
2022/07/27 11:46:25;;;;;;;5.32;1.15;;;22.30;56.60;;;;;;5030616;28;20033;-73
2022/07/27 11:49:00;;;;;;;1.67;0.73;;;22.40;55.00;;;;;;5030629;28;20416;-71
2022/07/27 11:51:27;;;;;;;2.15;0.73;;;22.40;55.10;;;;;;5030504;28;20463;-72
2022/07/27 11:54:01;;;;;;;2.97;0.65;;;22.50;54.00;;;;;;5030639;28;20053;-73
2022/07/27 11:56:30;;;;;;;5.05;1.17;;;22.30;53.70;;;;;;5030399;28;20512;-73
2022/07/27 11:59:06;;;;;;;4.60;1.42;;;22.40;54.60;;;;;;5031041;28;20022;-72
2022/07/27 12:01:35;;;;;;;2.58;1.33;;;22.50;54.80;;;;;;5030743;28;20041;-72
2022/07/27 12:04:20;;;;;;;3.65;1.05;;;22.30;55.50;;;;;;5030693;28;20041;-73
2022/07/27 12:07:09;;;;;;;5.70;1.05;;;22.20;55.80;;;;;;5030697;28;20533;-72
2022/07/27 12:09:38;;;;;;;5.57;0.85;;;22.50;56.00;;;;;;5030746;28;20034;-74
2022/07/27 12:12:32;;;;;;;2.50;0.60;;;22.30;55.30;;;;;;5029626;28;20049;-74
2022/07/27 12:15:12;;;;;;;54.15;31.85;;;22.30;55.20;;;;;;5028871;28;20037;-76
2022/07/27 12:17:39;;;;;;;44.45;19.83;;;22.30;55.00;;;;;;5029468;28;20022;-76
2022/07/27 12:20:16;;;;;;;13.43;8.07;;;22.10;54.60;;;;;;5030745;28;20101;-73
2022/07/27 12:22:44;;;;;;;3.60;1.08;;;22.10;55.00;;;;;;5029875;28;20530;-73
2022/07/27 12:25:29;;;;;;;79.28;48.03;;;22.10;54.80;;;;;;5030272;28;20048;-73
2022/07/27 12:28:11;;;;;;;206.73;131.45;;;22.40;55.30;;;;;;5029156;28;20033;-72
2022/07/27 12:30:48;;;;;;;5.55;3.13;;;22.60;55.90;;;;;;5030361;28;20350;-75
2022/07/27 12:33:30;;;;;;;2.72;0.90;;;22.50;54.80;;;;;;5030207;28;20428;-74
2022/07/27 12:35:57;;;;;;;4.55;0.93;;;22.50;54.50;;;;;;5030417;28;20391;-72
2022/07/27 12:38:23;;;;;;;3.72;1.08;;;22.50;54.50;;;;;;5029211;28;20128;-71
2022/07/27 12:40:54;;;;;;;2.17;0.60;;;22.60;55.30;;;;;;5030555;28;20033;-70
2022/07/27 12:43:23;;;;;;;88.38;45.35;;;22.80;55.20;;;;;;5029802;28;20033;-70
2022/07/27 12:45:50;;;;;;;76.13;42.33;;;23.10;55.60;;;;;;5030133;28;20432;-70
2022/07/27 12:48:21;;;;;;;19.27;9.27;;;23.10;56.10;;;;;;5030060;28;20065;-71
2022/07/27 12:51:10;;;;;;;4.15;2.72;;;23.10;56.90;;;;;;5029169;28;20187;-72
2022/07/27 12:53:37;;;;;;;6.55;1.25;;;23.10;58.30;;;;;;5029935;28;20065;-71
2022/07/27 12:56:08;;;;;;;5.05;0.80;;;23.10;57.90;;;;;;5029838;28;20049;-72
2022/07/27 12:58:36;;;;;;;4.32;0.77;;;23.20;57.20;;;;;;5030496;28;20029;-71